Terminal Aerodrome Forecast
Issued by NWS

Home | Current Version | Previous Version | Text Only | Print | Product List | Glossary On
Versions: 1 2 3 4 5 6 7 8 9 10 11 12 13 14 15 16 17 18
000
FTUS43 KOAX 261120
TAFCDR
TAF
KCDR 261120Z 2612/2712 01006KT P6SM VCSH OVC090
     FM261800 36009KT P6SM VCSH BKN025 OVC050
     FM262100 01010KT P6SM BKN060=

USA.gov is the U.S. government's official web portal to all federal, state and local government web resources and services.